createdAt,value
2022-11-08T00:06:50.181Z,67.68
2022-11-08T00:16:53.714Z,67.98
2022-11-08T00:26:56.899Z,68.31
2022-11-08T00:37:00.395Z,68.41
2022-11-08T00:47:04.627Z,68.80
2022-11-08T00:57:07.839Z,68.79
2022-11-08T01:07:11.104Z,68.82
2022-11-08T01:17:14.374Z,69.07
2022-11-08T01:27:17.564Z,69.13
2022-11-08T01:37:20.922Z,68.99
2022-11-08T01:47:24.074Z,69.05
2022-11-08T01:57:40.365Z,69.10
2022-11-08T02:07:43.574Z,69.30
2022-11-08T02:17:46.764Z,69.15
2022-11-08T02:27:49.925Z,69.19
2022-11-08T02:37:53.793Z,69.24
2022-11-08T02:47:56.943Z,69.32
2022-11-08T02:58:00.736Z,69.45
2022-11-08T03:08:04.393Z,69.36
2022-11-08T03:18:07.638Z,69.54
2022-11-08T03:28:10.870Z,69.63
2022-11-08T03:38:14.916Z,69.57
2022-11-08T03:48:19.261Z,69.92
2022-11-08T03:58:22.696Z,70.36
2022-11-08T04:08:25.845Z,70.50
2022-11-08T04:18:47.786Z,70.57
2022-11-08T04:28:51.041Z,70.45
2022-11-08T04:38:54.675Z,70.60
2022-11-08T04:49:00.638Z,70.70
2022-11-08T04:59:06.227Z,70.87
2022-11-08T05:09:12.845Z,71.18
2022-11-08T05:19:36.031Z,71.38
2022-11-08T05:29:42.198Z,71.49
2022-11-08T05:39:45.691Z,71.50
2022-11-08T05:49:48.895Z,71.65
2022-11-08T05:59:52.326Z,71.65
2022-11-08T06:10:25.879Z,71.67
2022-11-08T06:20:29.351Z,71.52
2022-11-08T06:30:32.568Z,71.20
2022-11-08T06:40:37.961Z,70.87
2022-11-08T06:50:42.645Z,70.64
2022-11-08T07:00:45.854Z,70.31
2022-11-08T07:10:49.059Z,70.33
2022-11-08T07:20:53.000Z,69.78
2022-11-08T07:31:02.215Z,69.37
2022-11-08T07:41:05.531Z,68.75
2022-11-08T07:51:08.766Z,68.07
2022-11-08T08:01:13.626Z,67.50
2022-11-08T08:11:16.932Z,66.79
2022-11-08T08:21:20.149Z,66.32
2022-11-08T08:31:23.396Z,66.23
2022-11-08T08:41:26.625Z,65.65
2022-11-08T08:51:29.909Z,65.59
2022-11-08T09:01:40.385Z,65.30
2022-11-08T09:11:43.771Z,65.12
2022-11-08T09:21:46.999Z,64.60
2022-11-08T09:31:50.243Z,64.27
2022-11-08T09:42:11.132Z,63.61
2022-11-08T09:52:23.857Z,63.27
2022-11-08T10:02:28.139Z,62.65
2022-11-08T10:12:49.882Z,62.12
2022-11-08T10:22:53.013Z,61.73
2022-11-08T10:32:57.662Z,60.96
2022-11-08T10:43:10.243Z,60.46
2022-11-08T10:53:35.166Z,60.24
2022-11-08T11:03:38.359Z,60.42
2022-11-08T11:13:41.521Z,60.75
2022-11-08T11:23:47.671Z,60.68
2022-11-08T11:33:50.868Z,60.65
2022-11-08T11:44:07.394Z,60.42
2022-11-08T11:54:15.566Z,59.83
2022-11-08T12:04:27.877Z,59.45
2022-11-08T12:15:00.800Z,59.10
2022-11-08T12:25:07.080Z,59.01
2022-11-08T12:35:35.929Z,58.87
2022-11-08T12:45:39.693Z,58.47
2022-11-08T12:55:47.564Z,58.35
2022-11-08T13:06:09.019Z,58.50
2022-11-08T13:16:12.348Z,58.71
2022-11-08T13:26:24.464Z,58.94
2022-11-08T13:36:43.411Z,59.15
2022-11-08T13:46:48.415Z,59.47
2022-11-08T13:56:57.004Z,59.89
2022-11-08T14:07:03.970Z,60.51
2022-11-08T14:17:12.832Z,61.07
2022-11-08T14:27:34.093Z,61.60
2022-11-08T14:37:37.799Z,62.19
2022-11-08T14:47:42.528Z,62.84
2022-11-08T14:57:46.924Z,63.18
2022-11-08T15:07:50.270Z,63.65
2022-11-08T15:18:12.759Z,64.34
2022-11-08T15:28:21.811Z,65.07
2022-11-08T15:38:39.563Z,65.62
2022-11-08T15:48:42.820Z,66.24
2022-11-08T15:58:46.246Z,66.73
2022-11-08T16:08:49.715Z,67.29
2022-11-08T16:18:53.126Z,67.89
2022-11-08T16:28:56.304Z,68.11
2022-11-08T16:39:02.998Z,68.43
2022-11-08T16:49:07.624Z,68.74
2022-11-08T16:59:10.861Z,68.85
2022-11-08T17:09:14.098Z,68.85
2022-11-08T17:19:17.256Z,69.05
2022-11-08T17:29:20.846Z,69.66
2022-11-08T17:39:24.154Z,70.18
2022-11-08T17:49:27.311Z,70.43
2022-11-08T17:59:30.661Z,70.56
2022-11-08T18:09:34.179Z,70.75
2022-11-08T18:19:37.544Z,70.84
2022-11-08T18:29:40.811Z,71.00
2022-11-08T18:39:44.053Z,71.10
2022-11-08T18:49:47.193Z,70.99
2022-11-08T18:59:50.473Z,71.04
2022-11-08T19:09:53.842Z,71.26
2022-11-08T19:19:57.110Z,70.93
2022-11-08T19:30:00.645Z,70.90
2022-11-08T19:40:05.240Z,70.68
2022-11-08T19:50:08.649Z,70.66
2022-11-08T20:00:13.814Z,70.64
2022-11-08T20:10:18.376Z,70.57
2022-11-08T20:20:21.833Z,70.56
2022-11-08T20:30:25.134Z,70.28
2022-11-08T20:40:28.328Z,70.18
2022-11-08T20:50:31.648Z,70.06
2022-11-08T21:00:57.864Z,69.98
2022-11-08T21:10:59.916Z,69.71
2022-11-08T21:21:12.235Z,69.82
2022-11-08T21:31:15.909Z,69.81
2022-11-08T21:41:19.166Z,69.72
2022-11-08T21:51:23.441Z,69.81
2022-11-08T22:01:30.652Z,69.96
2022-11-08T22:11:35.858Z,69.88
2022-11-08T22:21:39.574Z,69.85
2022-11-08T22:31:44.243Z,69.86
2022-11-08T22:41:53.220Z,69.96
2022-11-08T22:51:56.428Z,69.85
2022-11-08T23:02:01.275Z,69.92
2022-11-08T23:12:24.917Z,69.78
2022-11-08T23:22:46.652Z,69.67
2022-11-08T23:32:51.082Z,70.04
2022-11-08T23:43:32.059Z,70.27
2022-11-08T23:53:37.471Z,70.31
